首页
METAR-TAF:

METAR-TAF

机场 :

波尔多, 法国

纬度: 44-50N, 经度: 000-42W, 海拔: 49米

当前天气观测

该预报发布于35分钟前的02:30 UTC
风速2节,风向西
温度 4°C
湿度 93%
气压 1009 hPa
能見度: 0450

METAR: LFBD 170230Z AUTO 26002KT 0700 0450 R23/0600N R05/0700D R29/1400U FG VV/// 04/03 Q1009 TEMPO 0300 FG

时间: 04:05 (03:05 UTC)

预报

该预报发布于1小时和24分钟前的01:41 UTC
预报有效从17日的 01点(UTC)到 18日的 06点(UTC)
风速8节,风向西南
能見度: 6000
多云层高于3000英尺
几率 40% :
短暂存在
从 17日的 01点(UTC)到 17日的 10点(UTC)
能見度: 0300
几率 40%
从 17日的 10点(UTC)到 17日的 18点(UTC)
阴天层高于500英尺
短暂存在
从 18日的 00点(UTC)到 18日的 06点(UTC)
多云层高于600英尺

TAF: LFBD 170141Z 1701/1806 22008KT 6000 BKN030 TX10/1713Z TN03/1701Z PROB40 TEMPO 1701/1710 0300 FG VV/// PROB40 1710/1718 OVC005 TEMPO 1800/1806 BKN006

超过4000个机场的气象观测和天气预报(METAR&TAF报告)。

可查询的气象台以黄色和红色小点在地图上表示。

将鼠标移到小点上方,可查看气象台名称。

然后点击查看天气观测和预报。

如需切换地图:点击带黑十字的绿色按钮放大地图;点击带横线的绿色按钮缩小地图;或者点击绿色箭头查看邻近地区的地图。


METAR-TAF: